Time;durP1;ratioP1;P1;durP2;ratioP2;P2;SDS_P1;SDS_P2;PMS_P1;PMS_P2;Temp;Humidity;BMP_temperature;BMP_pressure;BME280_temperature;BME280_humidity;BME280_pressure;Samples;Min_cycle;Max_cycle;Signal;HPM_P1;HPM_P2
2023/06/16 00:00:14;;;;;;;8.33;7.47;;;15.50;83.60;;;;;;5086236;28;20673;-60
2023/06/16 00:02:43;;;;;;;14.97;7.50;;;15.50;83.80;;;;;;5086503;27;20484;-60
2023/06/16 00:05:12;;;;;;;13.23;8.47;;;15.80;85.20;;;;;;5080608;27;20479;-60
2023/06/16 00:07:39;;;;;;;13.63;8.77;;;15.40;85.30;;;;;;5089048;27;20821;-60
2023/06/16 00:10:07;;;;;;;14.87;8.37;;;15.40;83.80;;;;;;5082746;27;21001;-59
2023/06/16 00:12:35;;;;;;;10.57;8.70;;;15.30;83.60;;;;;;5092124;27;20476;-59
2023/06/16 00:15:03;;;;;;;11.73;9.00;;;15.30;84.40;;;;;;5080086;27;21513;-60
2023/06/16 00:17:30;;;;;;;12.63;7.77;;;14.50;84.00;;;;;;5093754;27;20465;-60
2023/06/16 00:19:58;;;;;;;12.77;9.67;;;15.20;85.10;;;;;;5078613;28;20488;-60
2023/06/16 00:22:26;;;;;;;11.83;8.93;;;15.00;84.70;;;;;;5068929;28;20485;-59
2023/06/16 00:24:53;;;;;;;13.67;9.87;;;15.00;84.70;;;;;;5070125;28;21001;-60
2023/06/16 00:27:22;;;;;;;16.33;11.27;;;14.90;85.00;;;;;;5068939;28;20478;-59
2023/06/16 00:29:49;;;;;;;14.83;11.33;;;14.80;85.30;;;;;;5079209;28;20693;-59
2023/06/16 00:32:16;;;;;;;24.90;14.73;;;14.70;85.90;;;;;;5070756;27;20527;-60
2023/06/16 00:34:43;;;;;;;16.77;11.53;;;14.50;85.80;;;;;;5093208;27;20702;-60
2023/06/16 00:37:10;;;;;;;18.67;11.50;;;14.30;88.00;;;;;;5088598;27;20483;-59
2023/06/16 00:39:38;;;;;;;19.83;11.50;;;14.30;88.10;;;;;;5091929;27;20578;-60
2023/06/16 00:42:06;;;;;;;16.87;11.23;;;14.30;88.00;;;;;;5086318;27;20816;-59
2023/06/16 00:44:33;;;;;;;15.93;11.43;;;14.40;87.50;;;;;;5101620;27;20472;-59
2023/06/16 00:47:00;;;;;;;20.00;12.13;;;14.60;87.80;;;;;;5102193;27;20468;-59
2023/06/16 00:49:27;;;;;;;27.17;14.70;;;14.30;87.10;;;;;;5082484;27;20782;-59
2023/06/16 00:51:54;;;;;;;21.17;11.50;;;14.20;86.90;;;;;;5100235;27;20477;-59
2023/06/16 00:54:22;;;;;;;32.50;16.77;;;14.10;87.40;;;;;;5103205;27;20466;-60
2023/06/16 00:56:51;;;;;;;19.47;11.43;;;14.00;87.60;;;;;;5103348;27;20477;-59
2023/06/16 00:59:18;;;;;;;32.93;14.53;;;14.00;87.80;;;;;;5108375;27;20804;-59
2023/06/16 01:01:48;;;;;;;21.57;12.93;;;14.00;87.80;;;;;;5090651;27;20496;-60
2023/06/16 01:04:15;;;;;;;27.77;14.97;;;13.90;87.80;;;;;;5095410;27;20472;-59
2023/06/16 01:06:51;;;;;;;33.50;10.30;;;13.90;87.40;;;;;;5104214;27;20472;-59
2023/06/16 01:09:24;;;;;;;22.10;12.07;;;13.90;87.60;;;;;;5112500;27;20476;-59
2023/06/16 01:12:00;;;;;;;23.50;11.90;;;13.90;87.20;;;;;;5109912;27;20849;-60
2023/06/16 01:14:35;;;;;;;30.47;15.73;;;13.90;87.80;;;;;;5109853;27;20467;-60
2023/06/16 01:17:05;;;;;;;19.93;11.93;;;;;;;;;;5092039;27;20477;-60
2023/06/16 01:19:40;;;;;;;15.90;11.00;;;13.90;85.90;;;;;;5093600;27;20936;-60
2023/06/16 01:22:15;;;;;;;24.50;12.17;;;13.90;87.10;;;;;;5092013;27;20485;-60
2023/06/16 01:24:45;;;;;;;21.87;11.07;;;13.90;86.50;;;;;;5097119;27;20468;-61
2023/06/16 01:27:17;;;;;;;26.40;14.43;;;13.90;86.10;;;;;;5108229;27;20525;-60
2023/06/16 01:29:46;;;;;;;19.03;12.00;;;13.90;86.60;;;;;;5100550;27;21002;-60
2023/06/16 01:32:17;;;;;;;19.13;11.37;;;13.90;86.90;;;;;;5095265;27;20481;-59
2023/06/16 01:34:44;;;;;;;24.80;14.00;;;13.80;86.70;;;;;;5086229;27;20479;-60
2023/06/16 01:37:13;;;;;;;25.57;12.97;;;13.70;86.30;;;;;;5091786;27;20477;-60
2023/06/16 01:39:41;;;;;;;18.63;11.30;;;13.70;86.20;;;;;;5112764;27;20483;-60
2023/06/16 01:42:10;;;;;;;20.27;11.43;;;13.60;86.60;;;;;;5096733;27;20511;-59
2023/06/16 01:44:37;;;;;;;18.67;10.07;;;13.60;86.70;;;;;;5109037;27;20484;-59
2023/06/16 01:47:07;;;;;;;18.57;11.80;;;13.50;86.60;;;;;;5072860;27;20573;-59
2023/06/16 01:49:34;;;;;;;14.57;8.80;;;13.50;86.30;;;;;;5086967;27;20702;-59
2023/06/16 01:52:02;;;;;;;13.60;8.77;;;13.30;86.80;;;;;;5100620;27;20512;-59
2023/06/16 01:54:29;;;;;;;29.03;15.40;;;13.40;87.10;;;;;;5096305;27;20977;-60
2023/06/16 01:56:57;;;;;;;18.93;11.93;;;;;;;;;;5086874;27;20480;-59
2023/06/16 01:59:25;;;;;;;29.53;15.33;;;13.20;87.20;;;;;;5108358;27;21013;-59
2023/06/16 02:01:54;;;;;;;25.10;13.73;;;;;;;;;;5101148;27;20483;-59
2023/06/16 02:04:23;;;;;;;33.13;14.93;;;13.10;87.10;;;;;;5076452;27;20899;-59
2023/06/16 02:06:56;;;;;;;28.10;16.03;;;13.10;87.80;;;;;;5076121;27;20490;-59
2023/06/16 02:09:24;;;;;;;31.50;15.97;;;13.10;87.60;;;;;;5079066;28;20482;-60
2023/06/16 02:11:53;;;;;;;22.00;10.07;;;13.10;88.00;;;;;;5058760;28;20561;-60
2023/06/16 02:14:20;;;;;;;34.83;17.47;;;13.20;87.40;;;;;;5079367;28;20474;-60
2023/06/16 02:16:51;;;;;;;21.53;12.23;;;13.20;87.00;;;;;;5072034;28;20566;-60
2023/06/16 02:19:17;;;;;;;24.00;12.30;;;13.10;87.50;;;;;;5075469;28;20483;-60
2023/06/16 02:21:45;;;;;;;19.50;11.23;;;13.00;88.50;;;;;;5068801;28;21086;-60
2023/06/16 02:24:12;;;;;;;21.37;12.13;;;12.90;88.60;;;;;;5070913;28;20493;-60
2023/06/16 02:26:38;;;;;;;24.87;12.63;;;12.60;89.10;;;;;;5074353;28;20466;-60
2023/06/16 02:29:05;;;;;;;20.13;10.90;;;12.40;89.80;;;;;;5076449;28;20478;-60
2023/06/16 02:31:32;;;;;;;17.97;10.53;;;12.40;89.90;;;;;;5068626;28;20878;-60
2023/06/16 02:34:00;;;;;;;21.60;9.80;;;12.40;89.50;;;;;;5069563;27;20855;-60
2023/06/16 02:36:28;;;;;;;29.77;15.23;;;12.20;90.00;;;;;;5065559;27;20486;-60
2023/06/16 02:38:55;;;;;;;17.07;9.77;;;12.20;90.20;;;;;;5073217;28;20507;-59
2023/06/16 02:41:22;;;;;;;36.10;17.60;;;12.10;90.20;;;;;;5069905;28;20475;-60
2023/06/16 02:43:49;;;;;;;21.13;12.53;;;12.10;90.90;;;;;;5061230;28;20890;-60
2023/06/16 02:46:16;;;;;;;32.07;16.27;;;12.10;91.20;;;;;;5064871;27;20485;-59
2023/06/16 02:48:42;;;;;;;24.60;12.37;;;12.10;91.10;;;;;;5101413;27;20573;-60
2023/06/16 02:51:11;;;;;;;41.37;12.83;;;11.90;91.30;;;;;;5088825;28;20527;-59
2023/06/16 02:53:39;;;;;;;20.63;11.73;;;;;;;;;;5084837;27;20943;-60
2023/06/16 02:56:06;;;;;;;23.93;12.07;;;11.60;92.30;;;;;;5068093;28;20578;-60
2023/06/16 02:58:33;;;;;;;17.70;10.70;;;11.60;92.30;;;;;;5045526;28;20943;-60
2023/06/16 03:01:00;;;;;;;22.77;13.30;;;11.80;92.00;;;;;;5053723;28;20478;-59
2023/06/16 03:03:30;;;;;;;27.77;14.33;;;11.90;91.70;;;;;;5050145;28;20467;-60
2023/06/16 03:05:58;;;;;;;22.20;12.73;;;11.90;91.50;;;;;;5074697;28;20851;-60
2023/06/16 03:08:27;;;;;;;30.30;15.93;;;12.10;91.40;;;;;;5070953;28;20547;-60
2023/06/16 03:10:53;;;;;;;21.47;11.90;;;12.20;90.90;;;;;;5066666;28;20687;-60
2023/06/16 03:13:21;;;;;;;34.93;17.73;;;12.20;90.50;;;;;;5070246;28;20482;-60
2023/06/16 03:15:48;;;;;;;33.83;13.40;;;12.30;90.40;;;;;;5044397;28;20560;-59
2023/06/16 03:18:14;;;;;;;23.83;13.03;;;12.30;90.40;;;;;;5083210;27;20480;-60
2023/06/16 03:20:45;;;;;;;19.40;11.23;;;12.30;90.20;;;;;;5071374;28;20490;-59
2023/06/16 03:23:13;;;;;;;36.67;11.83;;;12.30;90.00;;;;;;5065313;27;20484;-59
2023/06/16 03:25:41;;;;;;;16.63;10.20;;;12.20;90.10;;;;;;5092115;27;20841;-59
2023/06/16 03:28:08;;;;;;;22.27;12.60;;;12.00;90.30;;;;;;5068056;28;20490;-59
2023/06/16 03:30:34;;;;;;;19.67;9.17;;;12.00;90.30;;;;;;5067552;28;20482;-59
2023/06/16 03:33:01;;;;;;;19.37;11.63;;;12.00;89.80;;;;;;5075319;28;20493;-59
2023/06/16 03:35:28;;;;;;;26.03;13.87;;;12.10;90.10;;;;;;5072240;28;20676;-59
2023/06/16 03:37:55;;;;;;;22.17;11.63;;;12.00;90.10;;;;;;5069269;28;20474;-59
2023/06/16 03:40:22;;;;;;;32.13;16.30;;;11.90;90.30;;;;;;5062505;28;20475;-59
2023/06/16 03:42:50;;;;;;;21.60;12.70;;;11.90;90.80;;;;;;5071541;28;20474;-59
2023/06/16 03:45:17;;;;;;;30.30;13.40;;;11.80;90.90;;;;;;5063084;28;20471;-59
2023/06/16 03:47:43;;;;;;;25.47;14.70;;;11.80;90.70;;;;;;5072822;28;20829;-59
2023/06/16 03:50:11;;;;;;;22.60;11.43;;;11.80;90.50;;;;;;5074846;28;20481;-59
2023/06/16 03:52:37;;;;;;;23.27;10.80;;;11.80;90.70;;;;;;5069493;28;20482;-59
2023/06/16 03:55:05;;;;;;;21.10;12.03;;;11.80;90.90;;;;;;5073862;28;20916;-59
2023/06/16 03:57:32;;;;;;;24.40;13.20;;;11.80;91.00;;;;;;5073647;28;20482;-60
2023/06/16 04:00:00;;;;;;;27.40;11.00;;;12.00;91.00;;;;;;5072348;28;20486;-60
2023/06/16 04:02:27;;;;;;;26.23;14.33;;;12.00;91.00;;;;;;5069250;28;20477;-60
2023/06/16 04:04:55;;;;;;;19.13;11.43;;;12.10;90.90;;;;;;5068376;28;20905;-60
2023/06/16 04:07:22;;;;;;;28.20;13.80;;;12.20;90.90;;;;;;5069825;28;20571;-60
2023/06/16 04:09:49;;;;;;;25.97;14.67;;;12.20;90.80;;;;;;5058556;28;20552;-59
2023/06/16 04:12:16;;;;;;;27.27;15.20;;;12.20;90.60;;;;;;5067423;28;20505;-59
2023/06/16 04:14:43;;;;;;;21.70;10.57;;;12.00;91.10;;;;;;5071922;27;20842;-59
2023/06/16 04:17:11;;;;;;;22.63;12.57;;;12.00;91.40;;;;;;5080180;28;20492;-60
2023/06/16 04:19:37;;;;;;;20.40;12.07;;;12.00;91.20;;;;;;5080034;28;20490;-60
2023/06/16 04:22:05;;;;;;;21.37;11.00;;;12.00;91.30;;;;;;5084954;28;20557;-59
2023/06/16 04:24:32;;;;;;;17.03;11.13;;;12.00;91.90;;;;;;5087589;28;20485;-59
2023/06/16 04:26:59;;;;;;;20.83;11.70;;;11.90;92.40;;;;;;5072780;28;20966;-59
2023/06/16 04:29:26;;;;;;;25.53;12.37;;;12.00;92.00;;;;;;5073576;28;20474;-59
2023/06/16 04:31:57;;;;;;;18.83;10.43;;;12.00;92.10;;;;;;5068771;28;20481;-59
2023/06/16 04:34:25;;;;;;;27.97;14.03;;;12.00;91.90;;;;;;5072712;27;20486;-59
2023/06/16 04:36:57;;;;;;;24.37;13.50;;;12.00;91.80;;;;;;5058501;28;20566;-59
2023/06/16 04:39:24;;;;;;;35.77;17.20;;;12.00;91.90;;;;;;5054460;28;21045;-59
2023/06/16 04:41:51;;;;;;;31.40;13.67;;;11.90;92.40;;;;;;5081951;27;20483;-59
2023/06/16 04:44:17;;;;;;;28.67;14.27;;;11.90;92.50;;;;;;5071709;28;20474;-58
2023/06/16 04:46:45;;;;;;;33.97;14.67;;;12.00;92.60;;;;;;5066403;28;20477;-59
2023/06/16 04:49:11;;;;;;;36.03;14.50;;;12.10;92.60;;;;;;5070491;28;20943;-59
2023/06/16 04:51:40;;;;;;;16.50;10.20;;;12.10;93.00;;;;;;5071549;28;21011;-59
2023/06/16 04:54:07;;;;;;;18.97;11.47;;;12.20;93.00;;;;;;5072405;28;20482;-59
2023/06/16 04:56:33;;;;;;;20.13;11.83;;;12.20;93.30;;;;;;5063967;28;21008;-59
2023/06/16 04:59:00;;;;;;;29.07;15.40;;;12.20;93.40;;;;;;5064497;28;20490;-59
2023/06/16 05:01:27;;;;;;;28.83;15.03;;;12.30;93.90;;;;;;5064958;28;20471;-59
2023/06/16 05:03:54;;;;;;;24.60;12.47;;;12.50;93.90;;;;;;5069315;28;20916;-60
2023/06/16 05:06:21;;;;;;;37.67;18.20;;;12.60;93.80;;;;;;5068455;28;20474;-60
2023/06/16 05:08:49;;;;;;;22.70;12.40;;;12.60;93.80;;;;;;5066585;28;20534;-60
2023/06/16 05:11:16;;;;;;;26.07;12.70;;;12.70;94.00;;;;;;5071938;28;20910;-60
2023/06/16 05:13:43;;;;;;;28.90;14.77;;;12.90;94.00;;;;;;5062020;28;20474;-60
2023/06/16 05:16:10;;;;;;;26.40;15.70;;;12.90;94.20;;;;;;5057176;28;20536;-59
2023/06/16 05:18:36;;;;;;;19.17;13.00;;;13.10;94.00;;;;;;5068262;28;21049;-60
2023/06/16 05:21:03;;;;;;;29.27;14.57;;;13.30;93.70;;;;;;5069905;28;20993;-60
2023/06/16 05:23:30;;;;;;;24.40;15.37;;;13.40;93.40;;;;;;5071572;28;20489;-60
2023/06/16 05:25:58;;;;;;;25.43;14.80;;;13.70;93.30;;;;;;5068045;28;20470;-59
2023/06/16 05:28:25;;;;;;;34.33;18.77;;;13.80;93.60;;;;;;5055779;28;20478;-59
2023/06/16 05:30:52;;;;;;;28.97;14.80;;;13.80;93.80;;;;;;5049628;28;20573;-60
2023/06/16 05:33:19;;;;;;;23.57;13.10;;;13.90;94.00;;;;;;5066816;28;20478;-59
2023/06/16 05:35:46;;;;;;;28.70;16.60;;;14.00;94.00;;;;;;5067124;28;20485;-59
2023/06/16 05:38:12;;;;;;;24.23;14.63;;;14.10;94.50;;;;;;5060640;28;20479;-59
2023/06/16 05:40:39;;;;;;;26.93;15.27;;;14.30;94.50;;;;;;5061321;28;20475;-59
2023/06/16 05:43:07;;;;;;;27.83;15.40;;;14.40;94.50;;;;;;5060033;28;20479;-60
2023/06/16 05:45:34;;;;;;;22.60;14.63;;;14.50;94.10;;;;;;5038735;28;20551;-59
2023/06/16 05:48:01;;;;;;;18.63;12.53;;;14.70;93.80;;;;;;5086166;28;20707;-59
2023/06/16 05:50:28;;;;;;;35.63;17.40;;;14.80;93.80;;;;;;5072600;28;20533;-60
2023/06/16 05:52:55;;;;;;;21.40;14.47;;;14.90;93.80;;;;;;5075849;28;20786;-59
2023/06/16 05:55:22;;;;;;;33.13;19.30;;;15.10;93.80;;;;;;5059619;28;20463;-59
2023/06/16 05:57:48;;;;;;;26.60;15.27;;;15.20;93.30;;;;;;5060674;28;20489;-60
2023/06/16 06:00:17;;;;;;;31.33;18.50;;;15.50;93.10;;;;;;5066408;27;20474;-59
2023/06/16 06:02:44;;;;;;;30.00;14.30;;;15.70;93.50;;;;;;5065878;28;20474;-59
2023/06/16 06:05:11;;;;;;;24.87;16.30;;;15.90;93.20;;;;;;5068531;28;20572;-59
2023/06/16 06:07:38;;;;;;;18.87;14.73;;;16.10;93.00;;;;;;5071023;28;20486;-60
2023/06/16 06:10:06;;;;;;;17.80;13.87;;;16.30;92.50;;;;;;5061159;28;20488;-59
2023/06/16 06:12:33;;;;;;;20.20;14.20;;;16.50;92.20;;;;;;5074674;28;21034;-59
2023/06/16 06:15:00;;;;;;;22.80;14.67;;;16.70;92.20;;;;;;5015147;28;21042;-59
2023/06/16 06:17:28;;;;;;;39.23;16.33;;;16.90;92.20;;;;;;5052443;28;20493;-59
2023/06/16 06:19:55;;;;;;;27.70;14.80;;;17.00;91.30;;;;;;5057817;28;20489;-59
2023/06/16 06:22:22;;;;;;;23.20;15.63;;;17.20;90.80;;;;;;5043756;28;20897;-59
2023/06/16 06:24:48;;;;;;;18.00;13.57;;;17.40;90.60;;;;;;5077509;28;20485;-59
2023/06/16 06:27:16;;;;;;;21.67;15.17;;;17.60;89.70;;;;;;5074787;28;20493;-59
2023/06/16 06:29:43;;;;;;;22.37;14.70;;;17.70;89.00;;;;;;5064388;28;20474;-59
2023/06/16 06:32:12;;;;;;;15.10;11.93;;;18.00;88.30;;;;;;5074046;28;20557;-59
2023/06/16 06:34:40;;;;;;;15.80;12.37;;;18.20;86.80;;;;;;5065427;28;21060;-59
2023/06/16 06:37:07;;;;;;;25.63;14.57;;;18.30;86.10;;;;;;5062911;28;20477;-59
2023/06/16 06:39:33;;;;;;;23.10;12.30;;;18.60;84.90;;;;;;5066581;28;20473;-59
2023/06/16 06:42:00;;;;;;;26.17;14.37;;;18.70;85.40;;;;;;5063659;28;20486;-59
2023/06/16 06:44:27;;;;;;;22.10;14.63;;;18.90;85.30;;;;;;5059627;28;20487;-59
2023/06/16 06:46:55;;;;;;;33.50;11.93;;;19.10;86.80;;;;;;5055709;28;20486;-59
2023/06/16 06:49:22;;;;;;;21.13;15.50;;;19.30;86.00;;;;;;5065590;28;20592;-59
2023/06/16 06:51:51;;;;;;;18.47;14.30;;;19.40;87.00;;;;;;5071382;28;20501;-59
2023/06/16 06:54:18;;;;;;;19.07;11.70;;;19.80;85.90;;;;;;5072091;28;20823;-59
2023/06/16 06:56:45;;;;;;;14.90;11.30;;;20.00;85.00;;;;;;5065977;28;21026;-59
2023/06/16 06:59:11;;;;;;;15.57;11.70;;;20.20;84.80;;;;;;5061870;28;20510;-59
2023/06/16 07:01:38;;;;;;;21.57;11.80;;;20.60;84.90;;;;;;5063621;28;20506;-59
2023/06/16 07:04:05;;;;;;;14.17;11.43;;;20.80;84.80;;;;;;5074106;28;20484;-59
2023/06/16 07:06:32;;;;;;;15.50;11.37;;;21.00;83.60;;;;;;5056270;28;21028;-59
2023/06/16 07:09:00;;;;;;;14.30;10.50;;;21.40;78.70;;;;;;5072734;28;20488;-59
2023/06/16 07:11:27;;;;;;;17.73;12.50;;;21.60;77.90;;;;;;5073834;28;21008;-59
2023/06/16 07:13:54;;;;;;;13.73;10.50;;;21.90;77.70;;;;;;5077013;28;20526;-59
2023/06/16 07:16:21;;;;;;;18.13;11.93;;;22.30;79.20;;;;;;5068461;28;20976;-60
2023/06/16 07:18:48;;;;;;;19.73;10.00;;;22.50;77.20;;;;;;5059533;28;20470;-60
2023/06/16 07:21:14;;;;;;;11.70;10.00;;;22.70;78.10;;;;;;5074368;28;20488;-60
2023/06/16 07:23:41;;;;;;;15.80;9.70;;;23.00;76.70;;;;;;5074206;27;21081;-60
2023/06/16 07:26:09;;;;;;;13.13;10.13;;;23.20;76.20;;;;;;5070888;28;20483;-60
2023/06/16 07:28:36;;;;;;;12.27;9.47;;;23.50;76.90;;;;;;5071016;28;20765;-59
2023/06/16 07:31:03;;;;;;;42.00;9.73;;;23.80;77.20;;;;;;5071334;28;20985;-59
2023/06/16 07:33:30;;;;;;;12.30;10.73;;;24.00;75.70;;;;;;5079268;27;21264;-59
2023/06/16 07:35:57;;;;;;;24.57;10.43;;;24.40;75.90;;;;;;5061037;27;20486;-59
2023/06/16 07:38:24;;;;;;;17.33;9.93;;;24.60;72.90;;;;;;5076858;28;20925;-59
2023/06/16 07:40:50;;;;;;;24.60;10.13;;;24.90;69.30;;;;;;5065016;28;20492;-60
2023/06/16 07:43:21;;;;;;;16.80;10.67;;;25.00;68.60;;;;;;5060031;28;20477;-60
2023/06/16 07:45:50;;;;;;;18.73;9.10;;;25.30;70.30;;;;;;5060618;28;21007;-60
2023/06/16 07:48:17;;;;;;;12.23;8.63;;;25.50;69.20;;;;;;5058479;28;20497;-60
2023/06/16 07:50:44;;;;;;;11.60;8.97;;;25.60;70.30;;;;;;5072630;28;20500;-60
2023/06/16 07:53:10;;;;;;;11.83;7.60;;;25.80;67.60;;;;;;5093299;27;20487;-60
2023/06/16 07:55:37;;;;;;;9.33;7.30;;;26.00;62.60;;;;;;5081472;27;20476;-60
2023/06/16 07:58:04;;;;;;;10.50;8.20;;;26.10;63.00;;;;;;5085637;28;20971;-60
2023/06/16 08:00:32;;;;;;;11.27;7.83;;;26.40;64.90;;;;;;5085943;28;20492;-60
2023/06/16 08:02:59;;;;;;;10.57;7.97;;;26.50;65.30;;;;;;5065947;28;20918;-60
2023/06/16 08:05:26;;;;;;;11.20;9.70;;;26.70;65.10;;;;;;5082125;27;20538;-60
2023/06/16 08:07:53;;;;;;;14.80;7.77;;;26.80;64.40;;;;;;5056031;28;20481;-60
2023/06/16 08:10:20;;;;;;;12.70;10.73;;;27.00;64.70;;;;;;5074135;27;20485;-60
2023/06/16 08:12:49;;;;;;;19.40;8.40;;;27.00;63.90;;;;;;5075096;27;20542;-60
2023/06/16 08:15:16;;;;;;;13.30;8.67;;;27.30;65.70;;;;;;5064119;28;20997;-60
2023/06/16 08:17:44;;;;;;;10.83;8.97;;;27.50;66.60;;;;;;5088847;28;20556;-60
2023/06/16 08:20:12;;;;;;;9.90;8.90;;;27.70;63.00;;;;;;5086029;28;21023;-60
2023/06/16 08:22:39;;;;;;;8.27;7.23;;;27.70;64.20;;;;;;5077156;28;20575;-60
2023/06/16 08:25:06;;;;;;;8.70;7.90;;;27.90;62.40;;;;;;5080570;28;20480;-60
2023/06/16 08:27:33;;;;;;;10.93;9.10;;;28.10;63.30;;;;;;5075575;28;20487;-60
2023/06/16 08:30:01;;;;;;;17.80;9.33;;;28.20;61.40;;;;;;5093368;28;20480;-60
2023/06/16 08:32:28;;;;;;;12.00;10.50;;;28.40;61.00;;;;;;5068963;28;20629;-60
2023/06/16 08:34:56;;;;;;;11.20;10.03;;;28.50;60.60;;;;;;5090180;28;20476;-61
2023/06/16 08:37:23;;;;;;;10.43;8.50;;;28.70;62.10;;;;;;5061347;28;20546;-61
2023/06/16 08:39:50;;;;;;;13.80;8.80;;;28.90;60.70;;;;;;5084773;28;20493;-61
2023/06/16 08:42:19;;;;;;;10.20;9.10;;;28.90;58.60;;;;;;5065217;28;20477;-60
2023/06/16 08:44:46;;;;;;;9.70;7.90;;;28.90;57.80;;;;;;5074073;28;20564;-60
2023/06/16 08:47:13;;;;;;;10.10;7.70;;;29.00;57.40;;;;;;5079644;28;21339;-60
2023/06/16 08:49:41;;;;;;;9.90;6.87;;;29.10;56.90;;;;;;5095643;28;20488;-60
2023/06/16 08:52:16;;;;;;;12.33;7.10;;;29.20;55.30;;;;;;5093441;28;20481;-60
2023/06/16 08:54:48;;;;;;;8.27;6.70;;;29.20;55.70;;;;;;5074221;28;20550;-60
2023/06/16 08:57:17;;;;;;;14.00;7.33;;;29.20;57.00;;;;;;5069356;28;20493;-60
2023/06/16 08:59:47;;;;;;;9.23;8.33;;;29.30;55.40;;;;;;5062441;28;20667;-60
2023/06/16 09:02:15;;;;;;;8.23;7.40;;;29.40;55.20;;;;;;5087289;28;20602;-61
2023/06/16 09:04:42;;;;;;;9.03;7.50;;;29.40;55.80;;;;;;5085075;28;20488;-61
2023/06/16 09:07:11;;;;;;;10.77;8.47;;;29.60;56.30;;;;;;5076708;28;20503;-61
2023/06/16 09:09:38;;;;;;;11.43;7.93;;;29.60;53.80;;;;;;5077921;28;20477;-60
2023/06/16 09:12:07;;;;;;;17.73;8.50;;;29.60;52.70;;;;;;5049454;28;20880;-61
2023/06/16 09:14:36;;;;;;;8.57;7.63;;;29.70;53.40;;;;;;5054693;28;20893;-61
2023/06/16 09:17:05;;;;;;;13.27;8.37;;;29.80;54.00;;;;;;5066545;28;20902;-61
2023/06/16 09:19:34;;;;;;;9.07;7.23;;;29.90;51.50;;;;;;5072877;28;20518;-61
2023/06/16 09:22:01;;;;;;;8.00;7.27;;;29.90;51.40;;;;;;5073952;27;20519;-61
2023/06/16 09:24:30;;;;;;;14.70;8.53;;;29.90;51.90;;;;;;5063309;28;20860;-61
2023/06/16 09:26:59;;;;;;;10.40;8.63;;;29.80;50.30;;;;;;5078690;28;20465;-61
2023/06/16 09:29:28;;;;;;;14.63;9.33;;;29.70;52.00;;;;;;5056203;28;20494;-61
2023/06/16 09:32:06;;;;;;;12.77;7.33;;;29.90;52.10;;;;;;5041062;28;20464;-61
2023/06/16 09:34:33;;;;;;;16.60;8.63;;;29.90;49.80;;;;;;5063248;27;20486;-61
2023/06/16 09:37:00;;;;;;;25.43;8.20;;;29.90;51.00;;;;;;5083434;28;20477;-61
2023/06/16 09:39:29;;;;;;;12.73;9.17;;;30.10;53.90;;;;;;5062444;28;21054;-61
2023/06/16 09:41:58;;;;;;;13.10;8.00;;;30.20;53.10;;;;;;5089524;28;20488;-61
2023/06/16 09:44:26;;;;;;;11.63;6.73;;;30.40;53.30;;;;;;5090557;28;20486;-61
2023/06/16 09:46:54;;;;;;;9.30;7.23;;;30.50;52.00;;;;;;5045187;28;20521;-60
2023/06/16 09:49:22;;;;;;;14.17;9.90;;;30.50;52.10;;;;;;5043331;28;20487;-61
2023/06/16 09:51:52;;;;;;;16.77;7.17;;;30.60;52.40;;;;;;5055622;28;20497;-61
2023/06/16 09:54:21;;;;;;;19.60;10.30;;;30.40;49.50;;;;;;5076086;28;20486;-61
2023/06/16 09:56:49;;;;;;;10.70;7.57;;;30.50;52.30;;;;;;5066860;28;20492;-60
2023/06/16 09:59:17;;;;;;;12.47;9.20;;;30.60;52.90;;;;;;5052213;28;20877;-60
2023/06/16 10:01:47;;;;;;;9.50;8.23;;;30.80;50.40;;;;;;5083770;27;20495;-60
2023/06/16 10:04:16;;;;;;;14.10;7.33;;;30.90;52.30;;;;;;5073224;28;20996;-61
2023/06/16 10:06:48;;;;;;;7.33;6.67;;;31.00;51.20;;;;;;5055286;28;21066;-61
2023/06/16 10:09:18;;;;;;;13.10;8.87;;;31.00;51.10;;;;;;5093516;27;20496;-60
2023/06/16 10:11:47;;;;;;;13.60;6.70;;;31.00;50.50;;;;;;5093300;27;20487;-61
2023/06/16 10:14:18;;;;;;;8.87;8.00;;;30.90;47.70;;;;;;5073212;27;20493;-61
2023/06/16 10:16:49;;;;;;;14.03;6.90;;;31.00;51.60;;;;;;5068220;28;20767;-61
2023/06/16 10:19:19;;;;;;;11.43;8.00;;;30.90;48.50;;;;;;5066459;28;20513;-61
2023/06/16 10:21:47;;;;;;;7.70;6.93;;;31.10;49.70;;;;;;5079162;28;21073;-61
2023/06/16 10:24:15;;;;;;;9.53;7.47;;;31.10;48.50;;;;;;5059328;28;20489;-61
2023/06/16 10:26:43;;;;;;;8.00;7.10;;;31.00;45.70;;;;;;5073678;28;20482;-61
2023/06/16 10:29:16;;;;;;;8.37;7.53;;;30.90;48.90;;;;;;5053377;28;20986;-61
2023/06/16 10:31:45;;;;;;;10.93;7.00;;;30.70;50.00;;;;;;5068719;28;20494;-62
2023/06/16 10:34:19;;;;;;;11.50;8.00;;;30.70;48.30;;;;;;5073761;28;20461;-62
2023/06/16 10:36:47;;;;;;;8.97;8.07;;;30.60;49.40;;;;;;5053752;28;20489;-62
2023/06/16 10:39:15;;;;;;;9.20;7.53;;;30.60;46.50;;;;;;5064847;28;20563;-61
2023/06/16 10:41:54;;;;;;;9.40;6.87;;;30.80;50.40;;;;;;5046642;28;20476;-61
2023/06/16 10:44:29;;;;;;;12.97;8.43;;;30.90;49.80;;;;;;5052253;28;20493;-61
2023/06/16 10:47:31;;;;;;;9.60;8.57;;;31.10;50.00;;;;;;5070460;28;20522;-61
2023/06/16 10:49:59;;;;;;;10.97;7.80;;;31.10;48.20;;;;;;5075935;28;20460;-62
2023/06/16 10:52:51;;;;;;;13.07;8.70;;;30.70;45.30;;;;;;5096368;28;20467;-62
2023/06/16 10:55:31;;;;;;;8.73;7.83;;;30.60;46.60;;;;;;5062746;28;21074;-62
2023/06/16 10:58:21;;;;;;;15.03;7.63;;;30.10;43.80;;;;;;5055242;28;20477;-61
2023/06/16 11:00:58;;;;;;;7.13;6.20;;;30.20;47.20;;;;;;5051965;27;20455;-62
2023/06/16 11:03:35;;;;;;;12.03;7.43;;;30.30;47.50;;;;;;5070189;28;20524;-61
2023/06/16 11:06:04;;;;;;;8.10;6.17;;;30.20;48.50;;;;;;5054572;28;20501;-63
2023/06/16 11:08:32;;;;;;;8.77;5.63;;;30.00;47.20;;;;;;5077095;28;20457;-63
2023/06/16 11:11:06;;;;;;;8.70;7.80;;;29.80;48.60;;;;;;5071814;28;20855;-64
2023/06/16 11:13:35;;;;;;;25.53;8.87;;;29.40;48.80;;;;;;5060303;28;20476;-63
2023/06/16 11:16:03;;;;;;;11.40;8.20;;;29.20;49.70;;;;;;5066593;28;20475;-61
2023/06/16 11:18:33;;;;;;;10.90;9.10;;;29.10;49.90;;;;;;5073960;28;20484;-60
2023/06/16 11:21:02;;;;;;;10.97;6.90;;;28.90;50.50;;;;;;5085017;28;20582;-60
2023/06/16 11:23:30;;;;;;;8.60;7.83;;;28.90;47.90;;;;;;5063777;28;20494;-61
2023/06/16 11:26:04;;;;;;;8.60;7.70;;;29.40;48.80;;;;;;5065291;28;20524;-61
2023/06/16 11:28:33;;;;;;;7.47;6.73;;;29.50;47.90;;;;;;5056045;28;21014;-61
2023/06/16 11:31:01;;;;;;;6.07;5.47;;;29.80;49.60;;;;;;5066385;28;20493;-61
2023/06/16 11:33:28;;;;;;;9.10;7.57;;;29.60;46.80;;;;;;5063285;28;20486;-61
2023/06/16 11:35:57;;;;;;;8.37;7.30;;;29.50;49.10;;;;;;5034121;28;20476;-61
2023/06/16 11:38:25;;;;;;;8.40;6.47;;;29.60;51.40;;;;;;5066833;28;20566;-61
2023/06/16 11:40:53;;;;;;;10.50;5.80;;;29.60;51.40;;;;;;5063009;27;20484;-61
2023/06/16 11:43:23;;;;;;;7.30;6.17;;;29.80;52.70;;;;;;5072697;28;20554;-61
2023/06/16 11:45:51;;;;;;;6.70;5.00;;;30.00;49.80;;;;;;5084177;27;20512;-61
2023/06/16 11:48:18;;;;;;;8.17;5.83;;;30.50;50.60;;;;;;5095218;27;20463;-62
2023/06/16 11:50:46;;;;;;;5.47;5.00;;;30.60;49.80;;;;;;5046887;28;20477;-62
2023/06/16 11:53:16;;;;;;;7.67;6.47;;;30.80;50.10;;;;;;5048772;28;20994;-61
2023/06/16 11:55:50;;;;;;;10.43;6.97;;;31.20;50.10;;;;;;5051462;28;20985;-61
2023/06/16 11:58:17;;;;;;;8.47;7.17;;;31.20;48.10;;;;;;5076145;28;20460;-61
2023/06/16 12:00:45;;;;;;;15.47;5.30;;;31.20;49.60;;;;;;5071557;28;20479;-62
2023/06/16 12:03:12;;;;;;;6.60;6.00;;;31.10;49.20;;;;;;5081224;28;20488;-62
2023/06/16 12:05:41;;;;;;;9.47;5.93;;;30.80;50.70;;;;;;5047720;28;21067;-62
2023/06/16 12:08:08;;;;;;;8.10;6.57;;;31.00;50.60;;;;;;5083361;28;20609;-62
2023/06/16 12:10:36;;;;;;;9.53;6.17;;;31.10;49.00;;;;;;5090544;28;21052;-62
2023/06/16 12:14:00;;;;;;;8.30;6.67;;;31.10;49.90;;;;;;5059136;28;20473;-62
2023/06/16 12:16:58;;;;;;;11.03;6.33;;;31.10;50.70;;;;;;5062793;28;20452;-62
2023/06/16 12:19:28;;;;;;;6.50;5.43;;;31.00;47.10;;;;;;5069181;27;20447;-61
2023/06/16 12:22:00;;;;;;;18.87;6.87;;;31.10;50.30;;;;;;5071243;28;20627;-61
2023/06/16 12:24:28;;;;;;;6.77;6.17;;;31.10;49.50;;;;;;5059240;28;20899;-61
2023/06/16 12:26:56;;;;;;;16.50;6.10;;;;;;;;;;5057396;28;20646;-63
2023/06/16 12:29:28;;;;;;;8.57;7.67;;;31.40;49.60;;;;;;5051660;28;20501;-61
2023/06/16 12:31:56;;;;;;;14.47;7.43;;;31.40;48.40;;;;;;5046396;28;20930;-61
2023/06/16 12:34:25;;;;;;;12.43;6.60;;;31.50;50.10;;;;;;5076975;27;20575;-61
2023/06/16 12:36:53;;;;;;;7.77;6.97;;;31.60;48.70;;;;;;5055101;27;20880;-61
2023/06/16 12:39:21;;;;;;;8.97;7.80;;;31.80;45.80;;;;;;5094265;27;20496;-61
2023/06/16 12:42:01;;;;;;;20.10;7.80;;;31.80;46.80;;;;;;5070052;28;20521;-62